New Berlin, New York
Current Conditions -  °F | °C
As of 5:53 AM on Sunday 26 Oct 2014 (Local Time) from KRME Reporting Station
Light Rain Light Rain  
Wind Chill: 40°   Ceiling: 4700
Heat Index: 46°   Visibility: 10mi
Dew Point: 42°   Wind: 14mph
Humidity: 86%   Direction: 300°WNW
Pressure: 29.56"   Gusts: NA
Location:  42.62°N, 75.33°W
Report Text: KRME 260953Z AUTO 30012KT 10SM -RA FEW033 BKN047 OVC055 08/06 A2956 RMK AO2 RAB19 SLP010 P0001 T00780056
Loading
Personal Weather Stations






























Interactive Weather Map
Tropical Storm Tracking
New forecast layout! Learn more

10-Day Weather Forecast

Advertisements
Track Severe Weather on mobile